sensor_id;sensor_type;location;lat;lon;timestamp;P1;durP1;ratioP1;P2;durP2;ratioP2
75894;SDS011;64573;50.328;15.014;2023-09-30T00:02:21;12.00;;;6.30;;
75894;SDS011;64573;50.328;15.014;2023-09-30T00:04:46;10.23;;;5.85;;
75894;SDS011;64573;50.328;15.014;2023-09-30T00:07:12;9.57;;;5.80;;
75894;SDS011;64573;50.328;15.014;2023-09-30T00:09:37;10.60;;;6.13;;
75894;SDS011;64573;50.328;15.014;2023-09-30T00:12:02;10.68;;;6.13;;
75894;SDS011;64573;50.328;15.014;2023-09-30T00:14:28;13.10;;;6.32;;
75894;SDS011;64573;50.328;15.014;2023-09-30T00:16:54;9.68;;;6.20;;
75894;SDS011;64573;50.328;15.014;2023-09-30T00:19:19;11.02;;;5.97;;
75894;SDS011;64573;50.328;15.014;2023-09-30T00:21:47;10.55;;;6.13;;
75894;SDS011;64573;50.328;15.014;2023-09-30T00:24:13;9.95;;;6.00;;
75894;SDS011;64573;50.328;15.014;2023-09-30T00:26:38;8.48;;;6.18;;
75894;SDS011;64573;50.328;15.014;2023-09-30T00:29:04;11.05;;;6.18;;
75894;SDS011;64573;50.328;15.014;2023-09-30T00:31:30;9.02;;;6.43;;
75894;SDS011;64573;50.328;15.014;2023-09-30T00:33:55;10.80;;;6.70;;
75894;SDS011;64573;50.328;15.014;2023-09-30T00:36:21;10.90;;;6.65;;
75894;SDS011;64573;50.328;15.014;2023-09-30T00:38:46;13.20;;;6.40;;
75894;SDS011;64573;50.328;15.014;2023-09-30T00:41:12;12.63;;;6.90;;
75894;SDS011;64573;50.328;15.014;2023-09-30T00:43:37;13.88;;;6.63;;
75894;SDS011;64573;50.328;15.014;2023-09-30T00:46:17;10.38;;;6.43;;
75894;SDS011;64573;50.328;15.014;2023-09-30T00:51:23;11.90;;;6.60;;
75894;SDS011;64573;50.328;15.014;2023-09-30T00:53:49;10.23;;;6.65;;
75894;SDS011;64573;50.328;15.014;2023-09-30T00:56:17;12.90;;;6.93;;
75894;SDS011;64573;50.328;15.014;2023-09-30T00:58:43;12.35;;;7.13;;
75894;SDS011;64573;50.328;15.014;2023-09-30T01:01:10;13.50;;;7.32;;
75894;SDS011;64573;50.328;15.014;2023-09-30T01:03:36;14.13;;;6.85;;
75894;SDS011;64573;50.328;15.014;2023-09-30T01:06:02;13.20;;;6.20;;
75894;SDS011;64573;50.328;15.014;2023-09-30T01:08:27;10.68;;;6.90;;
75894;SDS011;64573;50.328;15.014;2023-09-30T01:10:53;12.63;;;6.68;;
75894;SDS011;64573;50.328;15.014;2023-09-30T01:13:20;11.88;;;7.00;;
75894;SDS011;64573;50.328;15.014;2023-09-30T01:15:45;13.38;;;6.72;;
75894;SDS011;64573;50.328;15.014;2023-09-30T01:18:12;14.40;;;7.15;;
75894;SDS011;64573;50.328;15.014;2023-09-30T01:20:38;10.50;;;6.60;;
75894;SDS011;64573;50.328;15.014;2023-09-30T01:23:03;14.98;;;6.63;;
75894;SDS011;64573;50.328;15.014;2023-09-30T01:25:29;9.93;;;6.80;;
75894;SDS011;64573;50.328;15.014;2023-09-30T01:27:55;12.70;;;7.00;;
75894;SDS011;64573;50.328;15.014;2023-09-30T01:30:20;10.07;;;7.10;;
75894;SDS011;64573;50.328;15.014;2023-09-30T01:32:47;12.05;;;7.22;;
75894;SDS011;64573;50.328;15.014;2023-09-30T01:35:13;9.00;;;6.63;;
75894;SDS011;64573;50.328;15.014;2023-09-30T01:37:38;10.52;;;6.88;;
75894;SDS011;64573;50.328;15.014;2023-09-30T01:40:04;10.25;;;6.45;;
75894;SDS011;64573;50.328;15.014;2023-09-30T01:42:33;10.65;;;6.55;;
75894;SDS011;64573;50.328;15.014;2023-09-30T01:44:58;20.35;;;7.05;;
75894;SDS011;64573;50.328;15.014;2023-09-30T01:47:23;8.85;;;5.80;;
75894;SDS011;64573;50.328;15.014;2023-09-30T01:49:48;12.32;;;6.82;;
75894;SDS011;64573;50.328;15.014;2023-09-30T01:52:14;12.52;;;7.25;;
75894;SDS011;64573;50.328;15.014;2023-09-30T01:54:39;10.60;;;6.57;;
75894;SDS011;64573;50.328;15.014;2023-09-30T01:57:05;12.48;;;7.20;;
75894;SDS011;64573;50.328;15.014;2023-09-30T01:59:30;12.10;;;6.93;;
75894;SDS011;64573;50.328;15.014;2023-09-30T02:01:55;12.55;;;6.35;;
75894;SDS011;64573;50.328;15.014;2023-09-30T02:04:21;12.70;;;6.38;;
75894;SDS011;64573;50.328;15.014;2023-09-30T02:06:46;13.10;;;5.93;;
75894;SDS011;64573;50.328;15.014;2023-09-30T02:09:11;11.27;;;6.05;;
75894;SDS011;64573;50.328;15.014;2023-09-30T02:11:37;15.27;;;6.07;;
75894;SDS011;64573;50.328;15.014;2023-09-30T02:14:03;11.80;;;6.03;;
75894;SDS011;64573;50.328;15.014;2023-09-30T02:16:30;11.20;;;6.10;;
75894;SDS011;64573;50.328;15.014;2023-09-30T02:18:56;12.57;;;5.75;;
75894;SDS011;64573;50.328;15.014;2023-09-30T02:21:21;10.32;;;6.25;;
75894;SDS011;64573;50.328;15.014;2023-09-30T02:23:47;8.27;;;5.95;;
75894;SDS011;64573;50.328;15.014;2023-09-30T02:26:20;10.55;;;6.75;;
75894;SDS011;64573;50.328;15.014;2023-09-30T02:28:45;11.73;;;6.60;;
75894;SDS011;64573;50.328;15.014;2023-09-30T02:31:11;12.70;;;6.80;;
75894;SDS011;64573;50.328;15.014;2023-09-30T02:33:37;13.48;;;7.47;;
75894;SDS011;64573;50.328;15.014;2023-09-30T02:36:06;11.75;;;7.43;;
75894;SDS011;64573;50.328;15.014;2023-09-30T02:38:32;12.82;;;7.57;;
75894;SDS011;64573;50.328;15.014;2023-09-30T02:40:58;9.95;;;6.80;;
75894;SDS011;64573;50.328;15.014;2023-09-30T02:43:23;11.13;;;6.82;;
75894;SDS011;64573;50.328;15.014;2023-09-30T02:45:48;9.98;;;6.78;;
75894;SDS011;64573;50.328;15.014;2023-09-30T02:48:15;10.50;;;7.25;;
75894;SDS011;64573;50.328;15.014;2023-09-30T02:50:43;21.08;;;7.70;;
75894;SDS011;64573;50.328;15.014;2023-09-30T02:53:11;10.65;;;7.03;;
75894;SDS011;64573;50.328;15.014;2023-09-30T02:55:40;12.90;;;6.72;;
75894;SDS011;64573;50.328;15.014;2023-09-30T02:58:06;13.23;;;6.53;;
75894;SDS011;64573;50.328;15.014;2023-09-30T03:00:33;13.10;;;6.70;;
75894;SDS011;64573;50.328;15.014;2023-09-30T03:02:59;12.70;;;7.30;;
75894;SDS011;64573;50.328;15.014;2023-09-30T03:05:29;9.02;;;6.38;;
75894;SDS011;64573;50.328;15.014;2023-09-30T03:07:58;10.88;;;6.47;;
75894;SDS011;64573;50.328;15.014;2023-09-30T03:10:24;12.80;;;7.28;;
75894;SDS011;64573;50.328;15.014;2023-09-30T03:12:52;11.68;;;6.80;;
75894;SDS011;64573;50.328;15.014;2023-09-30T03:15:18;11.45;;;6.45;;
75894;SDS011;64573;50.328;15.014;2023-09-30T03:17:44;12.75;;;7.15;;
75894;SDS011;64573;50.328;15.014;2023-09-30T03:20:10;16.83;;;6.75;;
75894;SDS011;64573;50.328;15.014;2023-09-30T03:22:42;13.65;;;6.65;;
75894;SDS011;64573;50.328;15.014;2023-09-30T03:25:09;11.77;;;6.95;;
75894;SDS011;64573;50.328;15.014;2023-09-30T03:27:35;12.82;;;7.30;;
75894;SDS011;64573;50.328;15.014;2023-09-30T03:30:02;13.25;;;6.88;;
75894;SDS011;64573;50.328;15.014;2023-09-30T03:32:28;12.95;;;6.93;;
75894;SDS011;64573;50.328;15.014;2023-09-30T03:34:54;13.85;;;7.07;;
75894;SDS011;64573;50.328;15.014;2023-09-30T03:37:24;11.63;;;7.10;;
75894;SDS011;64573;50.328;15.014;2023-09-30T03:39:51;16.42;;;7.10;;
75894;SDS011;64573;50.328;15.014;2023-09-30T03:42:18;12.07;;;7.15;;
75894;SDS011;64573;50.328;15.014;2023-09-30T03:44:43;14.02;;;7.10;;
75894;SDS011;64573;50.328;15.014;2023-09-30T03:47:08;13.43;;;7.60;;
75894;SDS011;64573;50.328;15.014;2023-09-30T03:49:34;12.57;;;6.38;;
75894;SDS011;64573;50.328;15.014;2023-09-30T03:51:59;13.60;;;6.25;;
75894;SDS011;64573;50.328;15.014;2023-09-30T03:54:26;19.95;;;7.15;;
75894;SDS011;64573;50.328;15.014;2023-09-30T03:56:52;14.70;;;6.60;;
75894;SDS011;64573;50.328;15.014;2023-09-30T03:59:17;13.32;;;6.10;;
75894;SDS011;64573;50.328;15.014;2023-09-30T04:01:44;16.00;;;5.88;;
75894;SDS011;64573;50.328;15.014;2023-09-30T04:04:09;13.52;;;5.50;;
75894;SDS011;64573;50.328;15.014;2023-09-30T04:06:35;15.07;;;6.22;;
75894;SDS011;64573;50.328;15.014;2023-09-30T04:09:03;15.93;;;5.47;;
75894;SDS011;64573;50.328;15.014;2023-09-30T04:11:34;15.52;;;5.75;;
75894;SDS011;64573;50.328;15.014;2023-09-30T04:14:00;12.18;;;5.00;;
75894;SDS011;64573;50.328;15.014;2023-09-30T04:16:25;14.65;;;5.53;;
75894;SDS011;64573;50.328;15.014;2023-09-30T04:18:53;13.95;;;4.97;;
75894;SDS011;64573;50.328;15.014;2023-09-30T04:21:20;12.48;;;5.03;;
75894;SDS011;64573;50.328;15.014;2023-09-30T04:23:45;12.85;;;5.45;;
75894;SDS011;64573;50.328;15.014;2023-09-30T04:26:11;12.80;;;4.65;;
75894;SDS011;64573;50.328;15.014;2023-09-30T04:28:36;10.25;;;4.88;;
75894;SDS011;64573;50.328;15.014;2023-09-30T04:31:02;12.18;;;4.70;;
75894;SDS011;64573;50.328;15.014;2023-09-30T04:33:28;12.45;;;4.85;;
75894;SDS011;64573;50.328;15.014;2023-09-30T04:35:53;11.95;;;4.10;;
75894;SDS011;64573;50.328;15.014;2023-09-30T04:38:18;10.95;;;3.90;;
75894;SDS011;64573;50.328;15.014;2023-09-30T04:40:44;10.13;;;3.67;;
75894;SDS011;64573;50.328;15.014;2023-09-30T04:43:13;8.32;;;2.35;;
75894;SDS011;64573;50.328;15.014;2023-09-30T04:45:39;5.28;;;2.40;;
75894;SDS011;64573;50.328;15.014;2023-09-30T04:48:05;5.82;;;2.35;;
75894;SDS011;64573;50.328;15.014;2023-09-30T04:50:30;4.40;;;1.05;;
75894;SDS011;64573;50.328;15.014;2023-09-30T04:52:56;5.72;;;0.82;;
75894;SDS011;64573;50.328;15.014;2023-09-30T04:55:22;2.70;;;0.98;;
75894;SDS011;64573;50.328;15.014;2023-09-30T04:57:48;1.75;;;0.80;;
75894;SDS011;64573;50.328;15.014;2023-09-30T05:00:15;1.33;;;0.88;;
75894;SDS011;64573;50.328;15.014;2023-09-30T05:02:47;2.15;;;0.68;;
75894;SDS011;64573;50.328;15.014;2023-09-30T05:05:12;1.88;;;0.93;;
75894;SDS011;64573;50.328;15.014;2023-09-30T05:07:39;1.88;;;1.10;;
75894;SDS011;64573;50.328;15.014;2023-09-30T05:10:05;3.30;;;0.75;;
75894;SDS011;64573;50.328;15.014;2023-09-30T05:12:35;4.55;;;1.00;;
75894;SDS011;64573;50.328;15.014;2023-09-30T05:15:00;1.98;;;1.13;;
75894;SDS011;64573;50.328;15.014;2023-09-30T05:17:27;1.98;;;0.70;;
75894;SDS011;64573;50.328;15.014;2023-09-30T05:19:53;2.92;;;1.17;;
75894;SDS011;64573;50.328;15.014;2023-09-30T05:22:19;1.83;;;1.02;;
75894;SDS011;64573;50.328;15.014;2023-09-30T05:24:48;5.30;;;1.58;;
75894;SDS011;64573;50.328;15.014;2023-09-30T05:27:14;2.50;;;1.00;;
75894;SDS011;64573;50.328;15.014;2023-09-30T05:29:39;4.15;;;1.00;;
75894;SDS011;64573;50.328;15.014;2023-09-30T05:32:05;1.50;;;0.82;;
75894;SDS011;64573;50.328;15.014;2023-09-30T05:34:31;2.35;;;0.80;;
75894;SDS011;64573;50.328;15.014;2023-09-30T05:36:57;3.92;;;1.10;;
75894;SDS011;64573;50.328;15.014;2023-09-30T05:39:23;4.78;;;1.55;;
75894;SDS011;64573;50.328;15.014;2023-09-30T05:41:50;2.53;;;1.08;;
75894;SDS011;64573;50.328;15.014;2023-09-30T05:44:16;1.63;;;1.00;;
75894;SDS011;64573;50.328;15.014;2023-09-30T05:46:41;6.35;;;0.90;;
75894;SDS011;64573;50.328;15.014;2023-09-30T05:49:08;2.45;;;1.30;;
75894;SDS011;64573;50.328;15.014;2023-09-30T05:51:38;3.55;;;1.00;;
75894;SDS011;64573;50.328;15.014;2023-09-30T05:54:07;2.25;;;1.10;;
75894;SDS011;64573;50.328;15.014;2023-09-30T05:56:35;3.90;;;1.27;;
75894;SDS011;64573;50.328;15.014;2023-09-30T05:59:02;3.70;;;1.00;;
75894;SDS011;64573;50.328;15.014;2023-09-30T06:01:28;3.00;;;1.25;;
75894;SDS011;64573;50.328;15.014;2023-09-30T06:03:53;8.60;;;1.73;;
75894;SDS011;64573;50.328;15.014;2023-09-30T06:06:19;4.25;;;1.20;;
75894;SDS011;64573;50.328;15.014;2023-09-30T06:08:45;2.65;;;1.25;;
75894;SDS011;64573;50.328;15.014;2023-09-30T06:11:19;2.88;;;1.20;;
75894;SDS011;64573;50.328;15.014;2023-09-30T06:13:49;1.95;;;0.95;;
75894;SDS011;64573;50.328;15.014;2023-09-30T06:16:18;2.28;;;1.15;;
75894;SDS011;64573;50.328;15.014;2023-09-30T06:18:44;4.90;;;1.20;;
75894;SDS011;64573;50.328;15.014;2023-09-30T06:21:10;3.60;;;1.20;;
75894;SDS011;64573;50.328;15.014;2023-09-30T06:23:36;3.95;;;1.35;;
75894;SDS011;64573;50.328;15.014;2023-09-30T06:26:01;2.53;;;1.10;;
75894;SDS011;64573;50.328;15.014;2023-09-30T06:28:27;2.58;;;0.90;;
75894;SDS011;64573;50.328;15.014;2023-09-30T06:30:56;4.28;;;1.50;;
75894;SDS011;64573;50.328;15.014;2023-09-30T06:33:22;2.53;;;1.02;;
75894;SDS011;64573;50.328;15.014;2023-09-30T06:35:48;8.15;;;1.80;;
75894;SDS011;64573;50.328;15.014;2023-09-30T06:38:18;3.83;;;1.13;;
75894;SDS011;64573;50.328;15.014;2023-09-30T06:40:44;5.38;;;1.20;;
75894;SDS011;64573;50.328;15.014;2023-09-30T06:43:12;5.55;;;1.58;;
75894;SDS011;64573;50.328;15.014;2023-09-30T06:45:41;4.35;;;1.40;;
75894;SDS011;64573;50.328;15.014;2023-09-30T06:48:08;7.97;;;2.00;;
75894;SDS011;64573;50.328;15.014;2023-09-30T06:50:47;3.60;;;1.23;;
75894;SDS011;64573;50.328;15.014;2023-09-30T06:53:17;3.38;;;1.10;;
75894;SDS011;64573;50.328;15.014;2023-09-30T06:55:49;4.72;;;1.50;;
75894;SDS011;64573;50.328;15.014;2023-09-30T06:58:16;3.85;;;1.13;;
75894;SDS011;64573;50.328;15.014;2023-09-30T07:00:46;5.25;;;1.40;;
75894;SDS011;64573;50.328;15.014;2023-09-30T07:03:20;4.45;;;1.52;;
75894;SDS011;64573;50.328;15.014;2023-09-30T07:05:45;4.75;;;1.55;;
75894;SDS011;64573;50.328;15.014;2023-09-30T07:08:14;4.72;;;1.60;;
75894;SDS011;64573;50.328;15.014;2023-09-30T07:10:40;3.85;;;1.30;;
75894;SDS011;64573;50.328;15.014;2023-09-30T07:13:05;7.43;;;1.70;;
75894;SDS011;64573;50.328;15.014;2023-09-30T07:15:34;5.78;;;1.40;;
75894;SDS011;64573;50.328;15.014;2023-09-30T07:17:59;6.90;;;1.50;;
75894;SDS011;64573;50.328;15.014;2023-09-30T07:20:25;6.95;;;1.35;;
75894;SDS011;64573;50.328;15.014;2023-09-30T07:22:51;6.15;;;1.50;;
75894;SDS011;64573;50.328;15.014;2023-09-30T07:25:17;7.65;;;1.73;;
75894;SDS011;64573;50.328;15.014;2023-09-30T07:27:43;6.38;;;1.35;;
75894;SDS011;64573;50.328;15.014;2023-09-30T07:30:10;4.07;;;1.17;;
75894;SDS011;64573;50.328;15.014;2023-09-30T07:32:37;6.53;;;1.52;;
75894;SDS011;64573;50.328;15.014;2023-09-30T07:35:03;5.57;;;1.55;;
75894;SDS011;64573;50.328;15.014;2023-09-30T07:37:28;7.78;;;1.55;;
75894;SDS011;64573;50.328;15.014;2023-09-30T07:39:54;8.20;;;1.95;;
75894;SDS011;64573;50.328;15.014;2023-09-30T07:42:19;4.13;;;1.67;;
75894;SDS011;64573;50.328;15.014;2023-09-30T07:44:44;6.10;;;1.35;;
75894;SDS011;64573;50.328;15.014;2023-09-30T07:47:10;6.97;;;1.42;;
75894;SDS011;64573;50.328;15.014;2023-09-30T07:49:37;7.45;;;1.48;;
75894;SDS011;64573;50.328;15.014;2023-09-30T07:52:03;7.70;;;1.70;;
75894;SDS011;64573;50.328;15.014;2023-09-30T07:54:28;6.75;;;1.58;;
75894;SDS011;64573;50.328;15.014;2023-09-30T07:56:54;6.32;;;1.95;;
75894;SDS011;64573;50.328;15.014;2023-09-30T07:59:20;8.05;;;1.60;;
75894;SDS011;64573;50.328;15.014;2023-09-30T08:01:47;7.25;;;1.75;;
75894;SDS011;64573;50.328;15.014;2023-09-30T08:04:13;7.47;;;1.63;;
75894;SDS011;64573;50.328;15.014;2023-09-30T08:06:38;7.72;;;1.80;;
75894;SDS011;64573;50.328;15.014;2023-09-30T08:09:04;9.88;;;2.00;;
75894;SDS011;64573;50.328;15.014;2023-09-30T08:11:36;8.63;;;2.13;;
75894;SDS011;64573;50.328;15.014;2023-09-30T08:14:03;5.07;;;1.48;;
75894;SDS011;64573;50.328;15.014;2023-09-30T08:16:32;8.25;;;1.75;;
75894;SDS011;64573;50.328;15.014;2023-09-30T08:18:58;5.88;;;1.48;;
75894;SDS011;64573;50.328;15.014;2023-09-30T08:21:23;9.50;;;1.30;;
75894;SDS011;64573;50.328;15.014;2023-09-30T08:23:48;7.35;;;1.60;;
75894;SDS011;64573;50.328;15.014;2023-09-30T08:26:14;8.57;;;1.77;;
75894;SDS011;64573;50.328;15.014;2023-09-30T08:28:39;6.05;;;1.80;;
75894;SDS011;64573;50.328;15.014;2023-09-30T08:31:05;11.43;;;1.80;;
75894;SDS011;64573;50.328;15.014;2023-09-30T08:33:31;7.63;;;1.63;;
75894;SDS011;64573;50.328;15.014;2023-09-30T08:36:03;6.00;;;1.67;;
75894;SDS011;64573;50.328;15.014;2023-09-30T08:38:36;8.80;;;1.80;;
75894;SDS011;64573;50.328;15.014;2023-09-30T08:41:03;6.97;;;1.35;;
75894;SDS011;64573;50.328;15.014;2023-09-30T08:43:29;5.03;;;1.60;;
75894;SDS011;64573;50.328;15.014;2023-09-30T08:45:57;9.25;;;1.98;;
75894;SDS011;64573;50.328;15.014;2023-09-30T08:48:23;6.25;;;1.60;;
75894;SDS011;64573;50.328;15.014;2023-09-30T08:50:51;5.85;;;1.55;;
75894;SDS011;64573;50.328;15.014;2023-09-30T08:53:19;5.15;;;1.80;;
75894;SDS011;64573;50.328;15.014;2023-09-30T08:55:44;8.88;;;1.70;;
75894;SDS011;64573;50.328;15.014;2023-09-30T08:58:14;7.95;;;1.75;;
75894;SDS011;64573;50.328;15.014;2023-09-30T09:00:40;8.15;;;1.40;;
75894;SDS011;64573;50.328;15.014;2023-09-30T09:03:06;11.75;;;2.38;;
75894;SDS011;64573;50.328;15.014;2023-09-30T09:05:32;7.18;;;1.67;;
75894;SDS011;64573;50.328;15.014;2023-09-30T09:07:58;8.00;;;2.05;;
75894;SDS011;64573;50.328;15.014;2023-09-30T09:10:24;8.50;;;1.83;;
75894;SDS011;64573;50.328;15.014;2023-09-30T09:12:56;6.13;;;1.50;;
75894;SDS011;64573;50.328;15.014;2023-09-30T09:15:23;8.43;;;2.22;;
75894;SDS011;64573;50.328;15.014;2023-09-30T09:17:54;6.65;;;1.20;;
75894;SDS011;64573;50.328;15.014;2023-09-30T09:20:23;7.78;;;2.20;;
75894;SDS011;64573;50.328;15.014;2023-09-30T09:25:20;8.27;;;1.70;;
75894;SDS011;64573;50.328;15.014;2023-09-30T09:27:49;11.85;;;1.90;;
75894;SDS011;64573;50.328;15.014;2023-09-30T09:33:17;7.10;;;1.58;;
75894;SDS011;64573;50.328;15.014;2023-09-30T09:35:36;9.70;;;1.95;;
75894;SDS011;64573;50.328;15.014;2023-09-30T09:38:05;7.07;;;1.67;;
75894;SDS011;64573;50.328;15.014;2023-09-30T09:40:32;4.65;;;1.60;;
75894;SDS011;64573;50.328;15.014;2023-09-30T09:42:59;7.88;;;2.10;;
75894;SDS011;64573;50.328;15.014;2023-09-30T09:45:30;7.68;;;1.92;;
75894;SDS011;64573;50.328;15.014;2023-09-30T09:48:05;5.38;;;1.40;;
75894;SDS011;64573;50.328;15.014;2023-09-30T09:50:32;7.72;;;1.70;;
75894;SDS011;64573;50.328;15.014;2023-09-30T09:52:58;5.20;;;1.67;;
75894;SDS011;64573;50.328;15.014;2023-09-30T09:55:25;5.38;;;1.80;;
75894;SDS011;64573;50.328;15.014;2023-09-30T09:57:52;5.35;;;1.30;;
75894;SDS011;64573;50.328;15.014;2023-09-30T10:00:20;6.57;;;1.73;;
75894;SDS011;64573;50.328;15.014;2023-09-30T10:02:48;6.55;;;1.60;;
75894;SDS011;64573;50.328;15.014;2023-09-30T10:05:15;6.22;;;2.08;;
75894;SDS011;64573;50.328;15.014;2023-09-30T10:07:44;6.63;;;1.85;;
75894;SDS011;64573;50.328;15.014;2023-09-30T10:10:16;8.30;;;1.63;;
75894;SDS011;64573;50.328;15.014;2023-09-30T10:12:44;5.50;;;1.60;;
75894;SDS011;64573;50.328;15.014;2023-09-30T10:20:32;6.15;;;1.50;;
75894;SDS011;64573;50.328;15.014;2023-09-30T10:25:54;5.07;;;1.80;;
75894;SDS011;64573;50.328;15.014;2023-09-30T10:28:46;5.18;;;1.63;;
75894;SDS011;64573;50.328;15.014;2023-09-30T10:31:21;5.95;;;1.27;;
75894;SDS011;64573;50.328;15.014;2023-09-30T10:36:29;3.75;;;1.60;;
75894;SDS011;64573;50.328;15.014;2023-09-30T10:38:56;4.75;;;1.60;;
75894;SDS011;64573;50.328;15.014;2023-09-30T10:47:01;5.50;;;1.30;;
75894;SDS011;64573;50.328;15.014;2023-09-30T10:49:49;5.07;;;1.63;;
75894;SDS011;64573;50.328;15.014;2023-09-30T10:52:21;5.90;;;1.60;;
75894;SDS011;64573;50.328;15.014;2023-09-30T10:54:50;5.45;;;1.20;;
75894;SDS011;64573;50.328;15.014;2023-09-30T10:57:26;6.47;;;1.90;;
75894;SDS011;64573;50.328;15.014;2023-09-30T11:00:11;5.72;;;1.85;;
75894;SDS011;64573;50.328;15.014;2023-09-30T11:02:50;3.90;;;1.33;;
75894;SDS011;64573;50.328;15.014;2023-09-30T11:05:17;6.47;;;1.73;;
75894;SDS011;64573;50.328;15.014;2023-09-30T11:07:44;5.78;;;1.40;;
75894;SDS011;64573;50.328;15.014;2023-09-30T11:10:15;7.80;;;1.65;;
75894;SDS011;64573;50.328;15.014;2023-09-30T11:12:56;6.00;;;1.60;;
75894;SDS011;64573;50.328;15.014;2023-09-30T11:15:22;8.00;;;1.52;;
75894;SDS011;64573;50.328;15.014;2023-09-30T11:17:48;5.75;;;1.40;;
75894;SDS011;64573;50.328;15.014;2023-09-30T11:20:15;6.57;;;1.60;;
75894;SDS011;64573;50.328;15.014;2023-09-30T11:22:42;5.55;;;1.63;;
75894;SDS011;64573;50.328;15.014;2023-09-30T11:25:14;4.97;;;1.48;;
75894;SDS011;64573;50.328;15.014;2023-09-30T11:27:41;5.07;;;1.48;;
75894;SDS011;64573;50.328;15.014;2023-09-30T11:30:07;6.25;;;1.55;;
75894;SDS011;64573;50.328;15.014;2023-09-30T11:32:33;6.88;;;1.70;;
75894;SDS011;64573;50.328;15.014;2023-09-30T11:34:58;2.92;;;1.23;;
75894;SDS011;64573;50.328;15.014;2023-09-30T11:37:30;6.47;;;1.83;;
75894;SDS011;64573;50.328;15.014;2023-09-30T11:40:13;4.70;;;1.40;;
75894;SDS011;64573;50.328;15.014;2023-09-30T11:42:39;7.35;;;1.60;;
75894;SDS011;64573;50.328;15.014;2023-09-30T11:45:18;3.15;;;1.20;;
75894;SDS011;64573;50.328;15.014;2023-09-30T11:47:45;6.45;;;1.40;;
75894;SDS011;64573;50.328;15.014;2023-09-30T11:50:13;5.60;;;1.67;;
75894;SDS011;64573;50.328;15.014;2023-09-30T11:52:39;6.15;;;1.50;;
75894;SDS011;64573;50.328;15.014;2023-09-30T11:55:11;9.18;;;1.90;;
75894;SDS011;64573;50.328;15.014;2023-09-30T11:57:37;7.35;;;1.98;;
75894;SDS011;64573;50.328;15.014;2023-09-30T12:00:04;7.47;;;1.70;;
75894;SDS011;64573;50.328;15.014;2023-09-30T12:02:38;5.40;;;1.45;;
75894;SDS011;64573;50.328;15.014;2023-09-30T12:05:05;7.43;;;1.50;;
75894;SDS011;64573;50.328;15.014;2023-09-30T12:07:36;7.28;;;1.95;;
75894;SDS011;64573;50.328;15.014;2023-09-30T12:10:02;6.25;;;1.75;;
75894;SDS011;64573;50.328;15.014;2023-09-30T12:12:28;9.07;;;2.00;;
75894;SDS011;64573;50.328;15.014;2023-09-30T12:14:53;4.43;;;1.30;;
75894;SDS011;64573;50.328;15.014;2023-09-30T12:17:20;4.90;;;1.60;;
75894;SDS011;64573;50.328;15.014;2023-09-30T12:19:47;9.38;;;1.60;;
75894;SDS011;64573;50.328;15.014;2023-09-30T12:22:13;8.40;;;1.75;;
75894;SDS011;64573;50.328;15.014;2023-09-30T12:24:38;6.28;;;1.33;;
75894;SDS011;64573;50.328;15.014;2023-09-30T12:27:04;6.88;;;1.80;;
75894;SDS011;64573;50.328;15.014;2023-09-30T12:29:31;4.70;;;1.58;;
75894;SDS011;64573;50.328;15.014;2023-09-30T12:31:57;6.47;;;1.83;;
75894;SDS011;64573;50.328;15.014;2023-09-30T12:34:22;5.93;;;1.83;;
75894;SDS011;64573;50.328;15.014;2023-09-30T12:36:50;6.13;;;1.70;;
75894;SDS011;64573;50.328;15.014;2023-09-30T12:39:16;6.03;;;1.48;;
75894;SDS011;64573;50.328;15.014;2023-09-30T12:41:42;7.50;;;1.95;;
75894;SDS011;64573;50.328;15.014;2023-09-30T12:44:09;8.32;;;1.90;;
75894;SDS011;64573;50.328;15.014;2023-09-30T12:46:35;5.05;;;1.65;;
75894;SDS011;64573;50.328;15.014;2023-09-30T12:49:05;4.30;;;1.70;;
75894;SDS011;64573;50.328;15.014;2023-09-30T12:51:32;6.00;;;1.85;;
75894;SDS011;64573;50.328;15.014;2023-09-30T12:53:58;5.75;;;1.50;;
75894;SDS011;64573;50.328;15.014;2023-09-30T12:56:24;7.90;;;1.88;;
75894;SDS011;64573;50.328;15.014;2023-09-30T12:58:50;8.23;;;2.03;;
75894;SDS011;64573;50.328;15.014;2023-09-30T13:01:16;7.65;;;1.95;;
75894;SDS011;64573;50.328;15.014;2023-09-30T13:03:44;4.93;;;1.50;;
75894;SDS011;64573;50.328;15.014;2023-09-30T13:06:10;5.10;;;1.60;;
75894;SDS011;64573;50.328;15.014;2023-09-30T13:08:35;5.80;;;1.50;;
75894;SDS011;64573;50.328;15.014;2023-09-30T13:11:01;6.82;;;1.88;;
75894;SDS011;64573;50.328;15.014;2023-09-30T13:13:29;5.65;;;1.58;;
75894;SDS011;64573;50.328;15.014;2023-09-30T13:15:57;6.00;;;1.67;;
75894;SDS011;64573;50.328;15.014;2023-09-30T13:18:25;5.47;;;1.58;;
75894;SDS011;64573;50.328;15.014;2023-09-30T13:20:51;6.15;;;2.05;;
75894;SDS011;64573;50.328;15.014;2023-09-30T13:23:19;4.93;;;1.50;;
75894;SDS011;64573;50.328;15.014;2023-09-30T13:25:45;5.57;;;1.60;;
75894;SDS011;64573;50.328;15.014;2023-09-30T13:28:10;7.07;;;1.40;;
75894;SDS011;64573;50.328;15.014;2023-09-30T13:30:36;5.25;;;1.70;;
75894;SDS011;64573;50.328;15.014;2023-09-30T13:33:02;4.35;;;1.60;;
75894;SDS011;64573;50.328;15.014;2023-09-30T13:35:28;6.53;;;1.73;;
75894;SDS011;64573;50.328;15.014;2023-09-30T13:37:56;7.53;;;1.92;;
75894;SDS011;64573;50.328;15.014;2023-09-30T13:40:22;6.53;;;1.95;;
75894;SDS011;64573;50.328;15.014;2023-09-30T13:42:47;6.78;;;1.70;;
75894;SDS011;64573;50.328;15.014;2023-09-30T13:45:13;8.35;;;1.83;;
75894;SDS011;64573;50.328;15.014;2023-09-30T13:47:42;4.28;;;1.40;;
75894;SDS011;64573;50.328;15.014;2023-09-30T13:50:10;10.07;;;1.88;;
75894;SDS011;64573;50.328;15.014;2023-09-30T13:52:39;5.55;;;1.70;;
75894;SDS011;64573;50.328;15.014;2023-09-30T13:55:04;5.63;;;1.40;;
75894;SDS011;64573;50.328;15.014;2023-09-30T13:57:33;4.90;;;1.40;;
75894;SDS011;64573;50.328;15.014;2023-09-30T14:00:00;5.78;;;1.50;;
75894;SDS011;64573;50.328;15.014;2023-09-30T14:02:25;10.90;;;2.42;;
75894;SDS011;64573;50.328;15.014;2023-09-30T14:04:51;7.45;;;1.92;;
75894;SDS011;64573;50.328;15.014;2023-09-30T14:07:18;6.60;;;1.75;;
75894;SDS011;64573;50.328;15.014;2023-09-30T14:09:43;4.68;;;1.33;;
75894;SDS011;64573;50.328;15.014;2023-09-30T14:12:09;5.78;;;1.67;;
75894;SDS011;64573;50.328;15.014;2023-09-30T14:17:00;6.55;;;1.70;;
75894;SDS011;64573;50.328;15.014;2023-09-30T14:19:25;5.65;;;1.65;;
75894;SDS011;64573;50.328;15.014;2023-09-30T14:21:51;6.07;;;1.45;;
75894;SDS011;64573;50.328;15.014;2023-09-30T14:24:16;4.30;;;1.40;;
75894;SDS011;64573;50.328;15.014;2023-09-30T14:26:42;5.82;;;1.52;;
75894;SDS011;64573;50.328;15.014;2023-09-30T14:29:09;4.75;;;1.50;;
75894;SDS011;64573;50.328;15.014;2023-09-30T14:31:36;10.43;;;1.67;;
75894;SDS011;64573;50.328;15.014;2023-09-30T14:34:03;7.30;;;1.85;;
75894;SDS011;64573;50.328;15.014;2023-09-30T14:36:30;7.78;;;1.88;;
75894;SDS011;64573;50.328;15.014;2023-09-30T14:38:57;6.22;;;1.98;;
75894;SDS011;64573;50.328;15.014;2023-09-30T14:41:22;10.25;;;1.50;;
75894;SDS011;64573;50.328;15.014;2023-09-30T14:43:48;6.78;;;1.73;;
75894;SDS011;64573;50.328;15.014;2023-09-30T14:46:14;6.13;;;1.58;;
75894;SDS011;64573;50.328;15.014;2023-09-30T14:48:39;7.60;;;1.60;;
75894;SDS011;64573;50.328;15.014;2023-09-30T14:51:05;6.00;;;1.55;;
75894;SDS011;64573;50.328;15.014;2023-09-30T14:53:32;6.38;;;1.67;;
75894;SDS011;64573;50.328;15.014;2023-09-30T14:55:57;6.03;;;1.40;;
75894;SDS011;64573;50.328;15.014;2023-09-30T14:58:22;7.95;;;1.73;;